Terminal Aerodrome Forecast
Issued by NWS

Home | Current Version | Previous Version | Text Only | Print | Product List | Glossary On
Versions: 1 2 3 4 5 6 7 8 9 10 11 12 13 14 15 16 17 18 19 20 21
656
FTUS46 KSEW 241720
TAFOLM
TAF
KOLM 241720Z 2418/2518 00000KT 3SM BR OVC005
      TEMPO 2418/2421 1SM BR OVC003
     FM242100 VRB03KT P6SM SCT008 BKN200
     FM250600 00000KT 2SM BR OVC002
     FM251000 00000KT 1/4SM FZFG VV001
     FM251700 00000KT 3SM BR OVC003=

USA.gov is the U.S. government's official web portal to all federal, state and local government web resources and services.